Time;durP1;ratioP1;P1;durP2;ratioP2;P2;SDS_P1;SDS_P2;PMS_P1;PMS_P2;Temp;Humidity;BMP_temperature;BMP_pressure;BME280_temperature;BME280_humidity;BME280_pressure;Samples;Min_cycle;Max_cycle;Signal;HPM_P1;HPM_P2
2021/01/21 00:00:17;;;;;;;2.10;0.80;;;19.70;44.30;;;;;;5010739;28;20036;-64
2021/01/21 00:02:42;;;;;;;2.05;1.13;;;19.70;44.20;;;;;;5065579;28;20048;-63
2021/01/21 00:05:08;;;;;;;1.75;0.90;;;19.70;44.80;;;;;;5066329;28;20077;-62
2021/01/21 00:07:34;;;;;;;1.85;1.00;;;19.70;44.10;;;;;;5065043;28;20039;-63
2021/01/21 00:09:59;;;;;;;0.77;0.60;;;19.70;44.20;;;;;;5060206;28;20470;-64
2021/01/21 00:12:25;;;;;;;1.92;0.75;;;19.80;44.20;;;;;;5065887;28;20073;-64
2021/01/21 00:14:51;;;;;;;2.40;0.57;;;19.70;44.20;;;;;;5065517;28;20482;-65
2021/01/21 00:17:16;;;;;;;1.50;0.60;;;19.70;44.10;;;;;;5065130;28;20048;-63
2021/01/21 00:19:42;;;;;;;2.42;1.52;;;19.80;44.10;;;;;;5064989;28;20041;-64
2021/01/21 00:22:07;;;;;;;2.67;1.00;;;19.80;44.10;;;;;;5065787;28;20515;-64
2021/01/21 00:24:33;;;;;;;1.23;0.80;;;19.70;44.10;;;;;;5065456;28;20032;-62
2021/01/21 00:26:58;;;;;;;1.88;0.80;;;19.70;44.10;;;;;;5065424;28;20115;-64
2021/01/21 00:29:24;;;;;;;2.97;0.80;;;19.80;44.20;;;;;;5065596;28;20710;-63
2021/01/21 00:31:50;;;;;;;2.78;0.70;;;19.70;44.20;;;;;;5065750;28;20665;-63
2021/01/21 00:34:15;;;;;;;0.77;0.60;;;19.80;44.20;;;;;;5065804;28;20036;-63
2021/01/21 00:36:41;;;;;;;2.72;1.10;;;19.80;44.20;;;;;;5065189;28;20032;-64
2021/01/21 00:39:06;;;;;;;0.98;0.60;;;19.80;44.20;;;;;;5065552;28;20182;-64
2021/01/21 00:41:32;;;;;;;1.42;0.50;;;19.80;44.20;;;;;;5066238;28;20109;-64
2021/01/21 00:43:57;;;;;;;0.80;0.50;;;19.70;44.30;;;;;;5064859;28;20495;-61
2021/01/21 00:46:23;;;;;;;1.88;0.93;;;19.70;44.20;;;;;;5047305;28;20036;-65
2021/01/21 00:48:48;;;;;;;1.95;0.82;;;19.70;44.20;;;;;;5064598;28;20062;-65
2021/01/21 00:51:14;;;;;;;1.10;0.57;;;19.70;44.20;;;;;;5065016;28;20040;-63
2021/01/21 00:53:39;;;;;;;1.98;0.70;;;19.70;44.20;;;;;;5063985;28;20032;-64
2021/01/21 00:56:05;;;;;;;0.98;0.68;;;19.70;44.20;;;;;;5064375;28;20029;-64
2021/01/21 00:58:30;;;;;;;1.90;0.85;;;19.70;44.20;;;;;;5064526;28;20032;-65
2021/01/21 01:00:56;;;;;;;1.58;0.70;;;19.70;44.30;;;;;;5064414;28;20108;-63
2021/01/21 01:03:21;;;;;;;0.93;0.50;;;19.70;44.30;;;;;;5064866;28;20040;-64
2021/01/21 01:05:47;;;;;;;0.95;0.75;;;19.70;44.30;;;;;;5063726;28;20626;-64
2021/01/21 01:08:12;;;;;;;1.60;0.77;;;19.70;44.30;;;;;;5063982;28;20033;-65
2021/01/21 01:10:38;;;;;;;2.20;0.55;;;19.70;44.20;;;;;;5064012;28;20063;-64
2021/01/21 01:13:03;;;;;;;2.08;0.65;;;19.70;44.30;;;;;;5064053;28;20518;-63
2021/01/21 01:15:31;;;;;;;0.73;0.73;;;19.70;44.30;;;;;;5046051;28;20033;-63
2021/01/21 01:17:56;;;;;;;1.13;0.55;;;19.70;44.30;;;;;;5045654;28;20547;-62
2021/01/21 01:20:22;;;;;;;0.73;0.40;;;19.70;44.30;;;;;;5063244;28;20123;-64
2021/01/21 01:22:49;;;;;;;1.25;0.50;;;19.70;44.30;;;;;;5057388;28;20035;-64
2021/01/21 01:25:15;;;;;;;1.50;0.73;;;19.70;44.30;;;;;;5046699;28;20063;-62
2021/01/21 01:27:43;;;;;;;1.13;0.73;;;19.60;44.30;;;;;;5063622;28;20496;-64
2021/01/21 01:30:15;;;;;;;0.93;0.68;;;19.70;44.30;;;;;;5044586;28;20070;-65
2021/01/21 01:32:41;;;;;;;1.27;0.50;;;19.60;45.00;;;;;;5060980;28;20515;-65
2021/01/21 01:35:07;;;;;;;1.70;0.90;;;19.60;44.30;;;;;;5045663;28;20036;-66
2021/01/21 01:37:32;;;;;;;1.90;0.60;;;19.60;44.40;;;;;;5063757;28;20040;-65
2021/01/21 01:39:58;;;;;;;1.58;0.60;;;19.60;44.40;;;;;;5064276;28;20547;-66
2021/01/21 01:42:23;;;;;;;2.38;0.60;;;19.60;44.40;;;;;;5064757;28;20029;-64
2021/01/21 01:44:49;;;;;;;1.45;0.57;;;19.60;44.40;;;;;;5063342;28;20138;-63
2021/01/21 01:47:15;;;;;;;1.48;0.65;;;19.60;44.40;;;;;;5063647;28;20103;-64
2021/01/21 01:49:41;;;;;;;2.50;0.90;;;19.60;44.40;;;;;;5045957;28;20060;-64
2021/01/21 01:52:06;;;;;;;1.42;0.50;;;19.60;44.40;;;;;;5046098;28;20177;-62
2021/01/21 01:54:32;;;;;;;2.15;0.90;;;19.60;44.40;;;;;;5045246;28;20037;-62
2021/01/21 01:56:58;;;;;;;1.25;0.60;;;19.60;44.40;;;;;;5046367;28;20032;-63
2021/01/21 01:59:23;;;;;;;0.75;0.50;;;19.50;44.40;;;;;;5045827;28;20032;-63
2021/01/21 02:01:49;;;;;;;0.90;0.50;;;19.60;44.50;;;;;;5045907;28;20067;-64
2021/01/21 02:04:15;;;;;;;1.05;0.60;;;19.50;44.40;;;;;;5045680;28;20032;-63
2021/01/21 02:06:40;;;;;;;1.25;0.50;;;19.50;44.50;;;;;;5063744;28;20064;-64
2021/01/21 02:09:06;;;;;;;1.17;0.60;;;19.50;44.50;;;;;;5063864;28;20029;-63
2021/01/21 02:11:47;;;;;;;0.70;0.43;;;19.50;44.50;;;;;;5063960;28;20112;-63
2021/01/21 02:14:33;;;;;;;0.98;0.90;;;19.50;44.50;;;;;;5044611;28;20499;-63
2021/01/21 02:17:02;;;;;;;2.10;0.70;;;19.50;44.50;;;;;;5029716;28;20438;-64
2021/01/21 02:19:48;;;;;;;0.82;0.50;;;19.50;44.50;;;;;;5013193;28;20056;-64
2021/01/21 02:22:45;;;;;;;1.30;0.60;;;19.50;44.50;;;;;;5029526;28;20575;-63
2021/01/21 02:25:15;;;;;;;1.38;0.70;;;19.50;44.50;;;;;;5044384;28;21852;-63
2021/01/21 02:27:53;;;;;;;2.25;0.60;;;19.40;44.50;;;;;;5044800;28;20032;-64
2021/01/21 02:30:28;;;;;;;1.30;0.63;;;19.40;44.50;;;;;;5046163;28;20037;-63
2021/01/21 02:32:59;;;;;;;;;;;19.40;44.60;;;;;;5063925;28;20102;-64
2021/01/21 02:35:25;;;;;;;1.95;0.60;;;19.40;44.60;;;;;;5045144;28;20000;-64
2021/01/21 02:37:53;;;;;;;1.42;0.57;;;19.40;44.60;;;;;;5045005;28;20028;-63
2021/01/21 02:40:18;;;;;;;1.48;0.60;;;19.30;44.60;;;;;;5062924;28;20033;-62
2021/01/21 02:42:45;;;;;;;0.60;0.47;;;19.30;44.60;;;;;;5047684;28;20051;-65
2021/01/21 02:45:11;;;;;;;0.85;0.60;;;19.30;44.60;;;;;;5067380;28;20052;-65
2021/01/21 02:47:37;;;;;;;1.67;0.60;;;19.30;44.60;;;;;;5066565;28;20581;-64
2021/01/21 02:50:03;;;;;;;1.00;0.70;;;19.30;44.60;;;;;;5067363;28;20128;-64
2021/01/21 02:52:35;;;;;;;1.95;0.70;;;19.30;44.60;;;;;;5033016;28;20033;-64
2021/01/21 02:55:06;;;;;;;0.95;0.40;;;19.30;44.60;;;;;;5060576;28;20032;-65
2021/01/21 02:57:52;;;;;;;0.50;0.40;;;19.30;44.50;;;;;;5066597;28;20029;-63
2021/01/21 03:00:18;;;;;;;0.50;0.50;;;19.40;44.60;;;;;;5066883;28;20036;-63
2021/01/21 03:02:44;;;;;;;0.50;0.40;;;19.30;44.50;;;;;;5049220;28;20072;-63
2021/01/21 03:05:12;;;;;;;0.70;0.38;;;19.30;44.60;;;;;;5066915;28;20036;-63
2021/01/21 03:07:37;;;;;;;0.75;0.35;;;19.30;44.50;;;;;;5049045;28;20461;-65
2021/01/21 03:10:07;;;;;;;0.85;0.55;;;19.30;44.50;;;;;;5068043;28;20040;-64
2021/01/21 03:12:32;;;;;;;0.47;0.38;;;19.30;44.50;;;;;;5066718;28;22008;-62
2021/01/21 03:14:58;;;;;;;0.80;0.50;;;19.30;44.60;;;;;;5048608;28;20098;-63
2021/01/21 03:17:24;;;;;;;0.80;0.40;;;19.40;44.60;;;;;;5066917;28;20032;-63
2021/01/21 03:19:50;;;;;;;1.23;0.57;;;19.40;44.50;;;;;;5067330;28;20044;-63
2021/01/21 03:22:16;;;;;;;1.30;0.70;;;19.40;44.50;;;;;;5067132;28;20043;-63
2021/01/21 03:24:41;;;;;;;1.23;0.50;;;19.30;44.60;;;;;;5066407;28;20467;-64
2021/01/21 03:27:07;;;;;;;0.52;0.30;;;19.30;44.50;;;;;;5066418;28;20028;-63
2021/01/21 03:29:32;;;;;;;1.02;0.60;;;19.30;44.50;;;;;;5066854;28;20050;-63
2021/01/21 03:31:58;;;;;;;0.63;0.50;;;19.40;44.50;;;;;;5066905;28;20071;-64
2021/01/21 03:34:23;;;;;;;4.60;0.70;;;19.40;44.50;;;;;;5066127;28;20402;-64
2021/01/21 03:36:49;;;;;;;1.02;0.50;;;19.40;44.50;;;;;;5066446;28;20731;-62
2021/01/21 03:39:14;;;;;;;1.40;0.60;;;19.30;44.40;;;;;;5065859;28;20039;-65
2021/01/21 03:41:40;;;;;;;2.33;0.60;;;19.40;44.50;;;;;;5066188;28;20112;-65
2021/01/21 03:44:05;;;;;;;1.17;0.50;;;19.30;44.50;;;;;;5066193;28;20040;-63
2021/01/21 03:46:31;;;;;;;0.45;0.45;;;19.40;44.50;;;;;;5065766;28;20461;-62
2021/01/21 03:48:56;;;;;;;0.65;0.40;;;19.30;44.40;;;;;;5066023;28;20436;-64
2021/01/21 03:51:22;;;;;;;1.23;0.60;;;19.30;44.40;;;;;;5066145;28;20052;-64
2021/01/21 03:53:47;;;;;;;0.68;0.50;;;19.40;44.40;;;;;;5064340;28;20024;-64
2021/01/21 03:56:13;;;;;;;0.55;0.40;;;19.40;44.40;;;;;;5065666;28;20478;-63
2021/01/21 03:58:38;;;;;;;0.80;0.57;;;19.40;44.40;;;;;;5022622;28;20036;-65
2021/01/21 04:01:04;;;;;;;0.85;0.63;;;19.40;44.40;;;;;;5064944;28;20588;-62
2021/01/21 04:03:29;;;;;;;0.50;0.32;;;19.40;44.40;;;;;;5066386;28;20119;-66
2021/01/21 04:05:55;;;;;;;0.80;0.55;;;19.40;44.40;;;;;;5065862;28;20683;-65
2021/01/21 04:08:20;;;;;;;0.50;0.40;;;19.40;44.40;;;;;;5047691;28;20039;-66
2021/01/21 04:10:46;;;;;;;0.60;0.40;;;19.30;44.40;;;;;;5066197;28;20037;-64
2021/01/21 04:13:11;;;;;;;1.40;0.52;;;19.30;44.40;;;;;;5065763;28;20031;-65
2021/01/21 04:15:37;;;;;;;0.73;0.40;;;19.40;44.40;;;;;;5066246;28;20403;-66
2021/01/21 04:18:03;;;;;;;0.40;0.30;;;19.40;44.50;;;;;;5065163;28;20045;-65
2021/01/21 04:20:28;;;;;;;0.85;0.50;;;19.40;44.50;;;;;;5047742;28;20077;-66
2021/01/21 04:22:54;;;;;;;0.50;0.45;;;19.30;44.40;;;;;;5065486;28;20044;-67
2021/01/21 04:25:19;;;;;;;0.60;0.57;;;19.30;44.40;;;;;;5065124;28;20376;-64
2021/01/21 04:27:45;;;;;;;1.15;0.63;;;19.30;44.40;;;;;;5065638;28;20044;-67
2021/01/21 04:30:11;;;;;;;1.20;0.60;;;19.40;44.50;;;;;;5065915;28;20094;-66
2021/01/21 04:32:36;;;;;;;0.90;0.43;;;19.30;44.40;;;;;;5065288;28;20048;-65
2021/01/21 04:35:02;;;;;;;0.90;0.70;;;19.30;44.50;;;;;;5063256;28;20057;-65
2021/01/21 04:37:27;;;;;;;1.48;0.50;;;19.30;44.40;;;;;;5064840;28;20071;-64
2021/01/21 04:39:53;;;;;;;1.08;0.52;;;19.40;44.50;;;;;;5065103;28;20043;-66
2021/01/21 04:42:18;;;;;;;0.55;0.35;;;19.30;44.40;;;;;;5047112;28;20032;-64
2021/01/21 04:44:44;;;;;;;0.47;0.35;;;19.30;44.40;;;;;;5046896;28;20033;-64
2021/01/21 04:47:09;;;;;;;0.70;0.40;;;19.30;44.50;;;;;;5065956;28;20124;-65
2021/01/21 04:49:38;;;;;;;0.63;0.60;;;19.30;44.50;;;;;;5046446;28;20047;-66
2021/01/21 04:52:04;;;;;;;0.52;0.50;;;19.30;44.50;;;;;;5047018;28;20051;-65
2021/01/21 04:54:37;;;;;;;0.70;0.60;;;19.30;44.40;;;;;;5046958;28;20398;-64
2021/01/21 04:57:03;;;;;;;0.50;0.40;;;19.30;44.50;;;;;;5043588;28;20119;-66
2021/01/21 04:59:31;;;;;;;1.02;0.50;;;19.30;44.40;;;;;;5046889;28;20112;-64
2021/01/21 05:01:57;;;;;;;0.77;0.50;;;19.30;44.40;;;;;;5047101;28;20029;-65
2021/01/21 05:04:22;;;;;;;0.88;0.40;;;19.30;44.50;;;;;;5046977;28;20090;-67
2021/01/21 05:06:48;;;;;;;0.88;0.47;;;19.30;44.40;;;;;;5030037;28;20144;-65
2021/01/21 05:09:13;;;;;;;0.40;0.38;;;19.20;44.40;;;;;;5064973;28;20445;-66
2021/01/21 05:11:39;;;;;;;0.70;0.43;;;19.20;44.40;;;;;;5046858;28;20024;-65
2021/01/21 05:14:05;;;;;;;2.00;0.65;;;19.30;44.40;;;;;;5064105;28;20042;-66
2021/01/21 05:16:30;;;;;;;1.17;0.40;;;19.30;44.40;;;;;;5064753;28;20036;-64
2021/01/21 05:18:59;;;;;;;0.63;0.35;;;19.30;44.50;;;;;;5046650;28;20031;-66
2021/01/21 05:21:25;;;;;;;0.60;0.50;;;19.20;44.40;;;;;;5046542;28;20107;-66
2021/01/21 05:23:56;;;;;;;0.40;0.35;;;19.20;44.40;;;;;;5029816;28;20495;-64
2021/01/21 05:26:22;;;;;;;0.40;0.35;;;19.20;44.40;;;;;;5063824;28;20081;-67
2021/01/21 05:28:48;;;;;;;3.03;0.63;;;19.20;44.40;;;;;;5046453;28;20035;-68
2021/01/21 05:31:13;;;;;;;1.35;0.52;;;19.20;44.40;;;;;;5064951;28;20036;-65
2021/01/21 05:33:39;;;;;;;1.63;0.47;;;19.20;44.40;;;;;;5046016;28;20078;-67
2021/01/21 05:36:06;;;;;;;0.35;0.30;;;19.20;44.40;;;;;;5045959;28;20106;-66
2021/01/21 05:38:31;;;;;;;0.70;0.57;;;19.20;44.40;;;;;;5046412;28;20435;-65
2021/01/21 05:40:58;;;;;;;1.80;0.40;;;19.20;44.40;;;;;;5062094;28;20037;-66
2021/01/21 05:43:23;;;;;;;1.77;0.45;;;19.20;44.40;;;;;;5044501;28;20495;-66
2021/01/21 05:45:49;;;;;;;0.63;0.50;;;19.20;44.40;;;;;;5046681;28;20032;-65
2021/01/21 05:48:14;;;;;;;1.30;0.77;;;19.20;44.40;;;;;;5045726;28;20032;-66
2021/01/21 05:50:40;;;;;;;0.82;0.40;;;19.20;44.40;;;;;;5063378;28;20079;-67
2021/01/21 05:53:09;;;;;;;0.57;0.40;;;19.20;44.40;;;;;;5064119;28;20618;-66
2021/01/21 05:55:38;;;;;;;0.60;0.57;;;19.20;44.40;;;;;;5063725;28;20040;-64
2021/01/21 05:58:04;;;;;;;2.60;0.93;;;19.20;44.40;;;;;;5045503;28;20036;-66
2021/01/21 06:00:31;;;;;;;2.42;0.50;;;19.20;44.40;;;;;;5046124;28;20033;-65
2021/01/21 06:02:56;;;;;;;2.40;0.50;;;19.20;44.40;;;;;;5026493;28;20043;-65
2021/01/21 06:05:22;;;;;;;2.13;0.60;;;19.20;44.40;;;;;;4996068;28;20029;-66
2021/01/21 06:07:48;;;;;;;0.77;0.45;;;19.20;44.40;;;;;;5063559;28;20044;-66
2021/01/21 06:10:14;;;;;;;0.40;0.40;;;19.20;44.50;;;;;;5045989;28;20497;-66
2021/01/21 06:12:43;;;;;;;0.95;0.70;;;19.20;44.40;;;;;;5063660;28;20048;-65
2021/01/21 06:15:11;;;;;;;1.27;0.60;;;19.20;44.40;;;;;;5045571;28;20060;-66
2021/01/21 06:17:36;;;;;;;0.80;0.60;;;19.20;44.40;;;;;;5028764;28;20102;-66
2021/01/21 06:20:02;;;;;;;0.50;0.50;;;19.20;44.40;;;;;;5045096;28;20044;-66
2021/01/21 06:22:29;;;;;;;0.50;0.50;;;19.20;44.40;;;;;;5044550;28;20466;-66
2021/01/21 06:24:58;;;;;;;2.33;0.90;;;19.10;44.40;;;;;;5033609;28;20036;-64
2021/01/21 06:27:23;;;;;;;1.25;0.90;;;19.10;44.30;;;;;;5063208;28;20048;-66
2021/01/21 06:29:49;;;;;;;1.83;0.70;;;19.10;44.40;;;;;;5045532;28;20052;-63
2021/01/21 06:32:16;;;;;;;1.50;0.80;;;19.10;44.30;;;;;;5044918;28;20107;-66
2021/01/21 06:34:42;;;;;;;2.05;0.80;;;19.10;44.40;;;;;;5045142;28;20044;-65
2021/01/21 06:37:18;;;;;;;1.42;0.80;;;19.10;44.40;;;;;;5044882;28;20025;-64
2021/01/21 06:39:55;;;;;;;1.77;0.93;;;19.10;44.40;;;;;;5063262;28;20403;-63
2021/01/21 06:42:28;;;;;;;2.45;0.77;;;19.10;44.40;;;;;;5063187;28;20094;-65
2021/01/21 06:44:57;;;;;;;4.10;1.55;;;19.10;44.40;;;;;;5045261;28;20055;-65
2021/01/21 06:47:23;;;;;;;5.20;2.88;;;19.00;45.00;;;;;;5045947;28;20075;-64
2021/01/21 06:49:53;;;;;;;8.88;2.70;;;19.00;44.50;;;;;;5029262;28;20025;-67
2021/01/21 06:52:18;;;;;;;9.38;3.72;;;19.00;44.50;;;;;;5046132;28;20035;-65
2021/01/21 06:54:44;;;;;;;9.85;3.60;;;19.00;44.50;;;;;;5045221;28;20040;-66
2021/01/21 06:57:34;;;;;;;15.40;3.67;;;19.00;44.60;;;;;;5045761;28;20111;-64
2021/01/21 07:00:00;;;;;;;8.95;3.60;;;19.00;44.60;;;;;;5063465;28;20028;-65
2021/01/21 07:02:50;;;;;;;13.15;4.65;;;18.90;44.60;;;;;;5063429;28;20029;-66
2021/01/21 07:05:19;;;;;;;10.85;4.60;;;19.00;44.60;;;;;;5045366;28;20028;-62
2021/01/21 07:07:58;;;;;;;12.73;4.88;;;18.90;44.60;;;;;;5063705;28;20443;-65
2021/01/21 07:10:26;;;;;;;12.05;4.38;;;19.00;44.70;;;;;;5063009;28;20500;-64
2021/01/21 07:12:55;;;;;;;10.20;3.63;;;19.00;44.70;;;;;;5038130;28;21901;-64
2021/01/21 07:15:40;;;;;;;12.25;4.47;;;19.00;44.80;;;;;;5010330;28;20124;-64
2021/01/21 07:18:06;;;;;;;12.52;5.13;;;19.00;44.80;;;;;;5026956;28;20025;-64
2021/01/21 07:20:33;;;;;;;12.48;3.35;;;18.90;44.70;;;;;;5026310;28;20037;-63
2021/01/21 07:23:05;;;;;;;13.68;4.75;;;18.90;44.70;;;;;;5043484;28;20029;-64
2021/01/21 07:25:31;;;;;;;13.82;4.03;;;18.90;44.70;;;;;;5026067;28;20654;-64
2021/01/21 07:27:56;;;;;;;12.60;4.60;;;18.90;44.70;;;;;;5026328;28;20029;-65
2021/01/21 07:30:26;;;;;;;8.40;3.60;;;18.90;44.70;;;;;;5047904;28;20048;-63
2021/01/21 07:33:22;;;;;;;10.40;4.47;;;18.90;44.70;;;;;;5047099;28;20103;-65
2021/01/21 07:35:49;;;;;;;11.35;4.07;;;18.90;44.70;;;;;;5047157;28;20033;-62
2021/01/21 07:38:46;;;;;;;7.70;3.78;;;18.90;44.70;;;;;;5029510;28;20033;-63
2021/01/21 07:41:40;;;;;;;11.48;3.55;;;18.90;44.70;;;;;;5029882;28;20033;-64
2021/01/21 07:44:06;;;;;;;10.25;3.60;;;18.90;44.70;;;;;;5046871;28;20033;-64
2021/01/21 07:46:31;;;;;;;10.50;3.53;;;18.90;44.60;;;;;;5029069;28;20029;-64
2021/01/21 07:49:25;;;;;;;9.93;3.42;;;18.90;44.60;;;;;;5061165;28;20491;-63
2021/01/21 07:52:05;;;;;;;8.40;3.83;;;18.90;44.70;;;;;;5067359;28;20380;-64
2021/01/21 07:54:43;;;;;;;10.65;4.25;;;18.90;44.60;;;;;;5063826;28;20607;-65
2021/01/21 07:57:08;;;;;;;6.20;3.22;;;18.90;44.60;;;;;;5065306;28;20029;-64
2021/01/21 08:00:09;;;;;;;9.77;3.63;;;18.90;44.60;;;;;;5065418;28;20055;-65
2021/01/21 08:02:44;;;;;;;8.88;3.65;;;18.90;44.60;;;;;;5064626;28;21714;-65
2021/01/21 08:05:10;;;;;;;10.95;3.50;;;18.90;44.60;;;;;;5065291;28;20025;-64
2021/01/21 08:07:46;;;;;;;8.88;3.95;;;18.90;44.70;;;;;;5045829;28;20464;-64
2021/01/21 08:10:12;;;;;;;7.93;3.22;;;18.90;44.60;;;;;;5046904;28;20453;-64
2021/01/21 08:12:38;;;;;;;6.30;3.28;;;19.00;44.70;;;;;;5065268;28;20103;-64
2021/01/21 08:15:07;;;;;;;6.75;2.95;;;19.00;44.60;;;;;;5064852;28;20044;-64
2021/01/21 08:17:32;;;;;;;8.10;3.55;;;19.00;44.60;;;;;;5045997;28;20041;-66
2021/01/21 08:19:57;;;;;;;9.10;3.83;;;19.00;44.60;;;;;;5066004;28;20510;-65
2021/01/21 08:22:23;;;;;;;6.00;2.92;;;19.00;44.60;;;;;;5066193;28;20029;-65
2021/01/21 08:24:59;;;;;;;8.18;3.65;;;19.00;44.60;;;;;;5066634;28;20024;-65
2021/01/21 08:27:24;;;;;;;6.07;3.17;;;19.00;44.50;;;;;;5065919;28;20519;-64
2021/01/21 08:29:50;;;;;;;6.43;3.38;;;19.10;44.60;;;;;;5048320;28;20063;-65
2021/01/21 08:32:15;;;;;;;7.25;2.42;;;19.10;44.50;;;;;;5066879;28;20024;-65
2021/01/21 08:34:41;;;;;;;6.13;3.20;;;19.10;44.50;;;;;;5031682;28;20020;-65
2021/01/21 08:37:06;;;;;;;6.97;2.80;;;19.20;44.50;;;;;;5049175;28;20016;-65
2021/01/21 08:39:32;;;;;;;8.82;3.63;;;19.20;44.40;;;;;;5047916;28;20131;-65
2021/01/21 08:41:58;;;;;;;5.38;2.80;;;19.20;44.40;;;;;;5049255;28;20040;-65
2021/01/21 08:44:23;;;;;;;6.03;2.65;;;19.30;44.40;;;;;;5048329;28;20063;-65
2021/01/21 08:46:56;;;;;;;8.65;2.97;;;19.30;44.30;;;;;;5048426;28;20407;-64
2021/01/21 08:49:22;;;;;;;6.25;2.83;;;19.40;44.30;;;;;;5065823;28;20029;-64
2021/01/21 08:51:48;;;;;;;6.68;2.70;;;19.40;44.20;;;;;;5047288;28;20064;-63
2021/01/21 08:54:15;;;;;;;6.28;3.03;;;19.40;44.20;;;;;;5048270;28;20047;-64
2021/01/21 08:56:41;;;;;;;6.15;3.20;;;19.40;44.20;;;;;;5066168;28;20444;-64
2021/01/21 08:59:26;;;;;;;6.55;3.13;;;19.50;44.20;;;;;;5047609;28;20104;-65
2021/01/21 09:01:51;;;;;;;7.17;2.77;;;19.50;44.10;;;;;;5066021;28;20483;-65
2021/01/21 09:04:35;;;;;;;9.10;2.70;;;19.50;44.10;;;;;;5065885;28;20278;-65
2021/01/21 09:07:00;;;;;;;5.60;2.58;;;19.60;44.10;;;;;;5065911;28;20032;-64
2021/01/21 09:09:27;;;;;;;4.90;2.28;;;19.60;44.00;;;;;;5065449;28;20031;-64
2021/01/21 09:11:52;;;;;;;5.10;2.50;;;19.60;44.10;;;;;;5065817;28;20039;-65
2021/01/21 09:14:23;;;;;;;5.65;2.55;;;19.70;44.10;;;;;;5047509;28;20021;-65
2021/01/21 09:16:55;;;;;;;7.18;2.40;;;19.70;44.10;;;;;;5065746;28;20071;-65
2021/01/21 09:19:26;;;;;;;5.82;2.65;;;19.70;44.00;;;;;;5065858;28;20111;-64
2021/01/21 09:22:12;;;;;;;6.47;2.90;;;19.70;44.00;;;;;;5065240;28;20403;-65
2021/01/21 09:24:55;;;;;;;4.75;2.88;;;19.70;43.90;;;;;;5065523;28;20112;-65
2021/01/21 09:27:24;;;;;;;5.45;2.70;;;19.70;43.90;;;;;;5065118;28;20109;-65
2021/01/21 09:29:54;;;;;;;4.45;2.25;;;19.70;44.00;;;;;;5065075;28;20060;-65
2021/01/21 09:32:21;;;;;;;4.90;1.98;;;19.70;44.00;;;;;;5065277;28;20028;-64
2021/01/21 09:35:00;;;;;;;3.63;1.92;;;19.70;44.00;;;;;;5065096;28;20038;-65
2021/01/21 09:37:27;;;;;;;5.57;2.50;;;19.70;44.00;;;;;;5064968;28;20032;-64
2021/01/21 09:39:52;;;;;;;4.30;1.83;;;19.70;43.90;;;;;;5065013;28;20032;-64
2021/01/21 09:42:18;;;;;;;4.35;2.10;;;19.70;43.90;;;;;;5064958;28;20058;-65
2021/01/21 09:44:43;;;;;;;4.20;1.60;;;19.70;43.90;;;;;;5065169;28;20050;-64
2021/01/21 09:47:09;;;;;;;5.82;1.83;;;19.80;44.00;;;;;;5064835;28;20031;-65
2021/01/21 09:49:35;;;;;;;4.40;2.08;;;19.70;44.00;;;;;;5065509;28;20036;-65
2021/01/21 09:52:00;;;;;;;7.38;1.60;;;19.70;44.00;;;;;;5064207;28;20020;-64
2021/01/21 09:54:26;;;;;;;4.25;1.90;;;19.70;43.90;;;;;;5064961;28;20047;-65
2021/01/21 09:56:52;;;;;;;3.83;1.67;;;19.70;43.90;;;;;;5065081;28;20063;-66
2021/01/21 09:59:18;;;;;;;4.10;1.63;;;19.70;44.00;;;;;;5064684;28;20039;-64
2021/01/21 10:01:44;;;;;;;3.75;1.80;;;19.70;44.00;;;;;;5065043;28;20457;-65
2021/01/21 10:04:10;;;;;;;4.57;1.55;;;19.70;43.90;;;;;;5046966;28;20025;-65
2021/01/21 10:06:35;;;;;;;6.18;1.80;;;19.70;44.00;;;;;;5065015;28;20062;-64
2021/01/21 10:09:01;;;;;;;2.63;1.50;;;19.70;44.00;;;;;;5046996;28;20036;-63
2021/01/21 10:11:26;;;;;;;3.95;1.70;;;19.70;44.00;;;;;;5064484;28;20514;-63
2021/01/21 10:13:52;;;;;;;3.13;1.17;;;19.70;44.00;;;;;;5065270;28;20431;-65
2021/01/21 10:16:18;;;;;;;2.53;1.30;;;19.70;43.90;;;;;;5064696;28;20031;-64
2021/01/21 10:18:43;;;;;;;2.75;1.50;;;19.60;44.00;;;;;;5064972;28;20102;-63
2021/01/21 10:21:09;;;;;;;2.25;1.27;;;19.60;44.00;;;;;;5065198;28;20040;-65
2021/01/21 10:23:34;;;;;;;3.20;1.70;;;19.60;44.00;;;;;;5064468;28;20043;-65
2021/01/21 10:26:00;;;;;;;4.40;1.83;;;19.60;44.10;;;;;;5063027;28;20485;-65
2021/01/21 10:28:25;;;;;;;2.83;1.77;;;19.60;44.20;;;;;;5042309;28;20536;-67
2021/01/21 10:30:51;;;;;;;3.75;1.63;;;19.60;44.30;;;;;;5064169;28;20861;-65
2021/01/21 10:33:16;;;;;;;2.63;1.42;;;19.60;44.40;;;;;;5064482;28;20063;-65
2021/01/21 10:35:42;;;;;;;3.22;1.23;;;19.60;44.40;;;;;;5064398;28;20055;-66
2021/01/21 10:38:07;;;;;;;1.92;1.40;;;19.60;44.50;;;;;;5047573;28;20026;-66
2021/01/21 10:40:33;;;;;;;4.72;1.38;;;19.60;44.50;;;;;;5064613;28;20033;-67
2021/01/21 10:42:58;;;;;;;4.82;1.38;;;19.60;44.50;;;;;;5063526;28;20021;-65
2021/01/21 10:45:24;;;;;;;3.97;1.95;;;19.60;44.50;;;;;;5064220;28;20047;-67
2021/01/21 10:47:49;;;;;;;2.47;1.35;;;19.60;44.60;;;;;;5064363;28;20021;-65
2021/01/21 10:50:15;;;;;;;1.92;1.17;;;19.60;44.70;;;;;;5064567;28;20075;-63
2021/01/21 10:52:40;;;;;;;1.70;1.10;;;19.60;44.70;;;;;;5062164;28;20499;-66
2021/01/21 10:55:06;;;;;;;2.50;1.50;;;19.60;44.60;;;;;;5026151;28;20500;-65
2021/01/21 10:57:31;;;;;;;3.53;1.40;;;19.60;44.70;;;;;;5043726;28;20029;-66
2021/01/21 10:59:57;;;;;;;3.17;1.27;;;19.60;44.70;;;;;;5044621;28;20029;-65
2021/01/21 11:02:22;;;;;;;4.38;1.40;;;19.60;44.80;;;;;;5026149;28;20029;-66
2021/01/21 11:04:48;;;;;;;4.45;1.50;;;19.60;44.80;;;;;;5030238;28;20397;-66
2021/01/21 11:07:13;;;;;;;2.15;1.20;;;19.60;44.80;;;;;;5048370;28;20056;-66
2021/01/21 11:09:39;;;;;;;2.00;1.02;;;19.50;44.70;;;;;;5029628;28;21446;-66
2021/01/21 11:12:05;;;;;;;4.22;1.67;;;19.50;44.80;;;;;;5048110;28;20387;-68
2021/01/21 11:14:31;;;;;;;3.40;1.25;;;19.50;44.90;;;;;;5047740;28;20083;-67
2021/01/21 11:16:57;;;;;;;2.63;1.23;;;19.50;44.90;;;;;;5048268;28;20116;-66
2021/01/21 11:19:23;;;;;;;2.50;1.20;;;19.50;45.00;;;;;;5029787;28;20029;-65
2021/01/21 11:21:51;;;;;;;2.97;1.17;;;19.50;45.00;;;;;;5030070;28;20044;-66
2021/01/21 11:24:17;;;;;;;2.53;1.13;;;19.40;45.10;;;;;;5047201;28;20024;-66
2021/01/21 11:26:42;;;;;;;2.58;1.20;;;19.40;45.30;;;;;;5047918;28;20373;-66
2021/01/21 11:29:08;;;;;;;2.30;1.10;;;19.40;45.40;;;;;;5047565;28;20021;-65
2021/01/21 11:31:33;;;;;;;7.00;1.75;;;19.40;45.50;;;;;;5047497;28;20459;-67
2021/01/21 11:33:59;;;;;;;3.80;1.25;;;19.40;45.50;;;;;;5046775;28;20040;-67
2021/01/21 11:36:24;;;;;;;2.40;1.10;;;19.40;45.50;;;;;;5047388;28;20033;-66
2021/01/21 11:38:50;;;;;;;4.95;1.98;;;19.40;45.50;;;;;;5046658;28;20052;-67
2021/01/21 11:41:15;;;;;;;2.63;1.45;;;19.40;45.60;;;;;;5047654;28;20025;-67
2021/01/21 11:43:41;;;;;;;2.78;1.48;;;19.40;45.60;;;;;;5029036;28;20025;-66
2021/01/21 11:46:06;;;;;;;2.47;1.30;;;19.40;45.60;;;;;;5047269;28;20427;-67
2021/01/21 11:48:32;;;;;;;3.80;1.30;;;19.40;45.70;;;;;;5046867;28;20119;-66
2021/01/21 11:50:57;;;;;;;3.65;1.20;;;19.40;45.70;;;;;;5047557;28;20029;-66
2021/01/21 11:53:23;;;;;;;5.05;1.05;;;19.40;45.70;;;;;;5047191;28;20025;-65
2021/01/21 11:55:48;;;;;;;2.75;1.20;;;19.40;45.80;;;;;;5046937;28;20407;-65
2021/01/21 11:58:14;;;;;;;2.17;0.90;;;19.40;45.80;;;;;;5029878;28;20040;-65
2021/01/21 12:00:39;;;;;;;6.10;1.15;;;19.40;45.80;;;;;;5047505;28;20113;-66
2021/01/21 12:03:05;;;;;;;3.13;1.25;;;19.40;45.70;;;;;;5046803;28;20037;-67
2021/01/21 12:05:30;;;;;;;1.83;1.10;;;19.40;45.80;;;;;;5046915;28;20087;-64
2021/01/21 12:07:56;;;;;;;4.13;1.30;;;19.40;45.90;;;;;;5046144;28;20029;-66
2021/01/21 12:10:21;;;;;;;2.90;1.08;;;19.40;45.90;;;;;;5028556;28;20550;-66
2021/01/21 12:12:47;;;;;;;2.38;1.27;;;19.40;45.80;;;;;;5047278;28;20043;-65
2021/01/21 12:15:13;;;;;;;2.35;0.98;;;19.40;45.90;;;;;;5046116;28;20029;-66
2021/01/21 12:17:38;;;;;;;4.38;1.35;;;19.40;45.90;;;;;;5027585;28;20025;-66
2021/01/21 12:20:04;;;;;;;1.63;1.15;;;19.40;45.90;;;;;;5012576;28;20518;-66
2021/01/21 12:22:30;;;;;;;3.05;1.17;;;19.40;45.90;;;;;;5028676;28;20040;-65
2021/01/21 12:24:55;;;;;;;2.83;1.10;;;19.40;45.90;;;;;;5028842;28;20364;-65
2021/01/21 12:27:21;;;;;;;3.67;1.38;;;19.40;45.90;;;;;;5029198;28;20179;-66
2021/01/21 12:29:46;;;;;;;2.95;1.10;;;19.40;45.90;;;;;;5028777;28;20100;-65
2021/01/21 12:32:11;;;;;;;5.18;1.00;;;19.40;45.90;;;;;;5029020;28;20037;-65
2021/01/21 12:34:37;;;;;;;4.55;1.63;;;19.40;45.90;;;;;;5046991;28;20025;-65
2021/01/21 12:37:02;;;;;;;4.05;1.33;;;19.40;45.90;;;;;;5046318;28;20407;-65
2021/01/21 12:39:28;;;;;;;2.70;1.05;;;19.40;45.90;;;;;;5046591;28;20029;-65
2021/01/21 12:41:54;;;;;;;4.00;1.10;;;19.40;45.90;;;;;;5046410;28;20087;-66
2021/01/21 12:44:19;;;;;;;2.80;0.85;;;19.40;45.90;;;;;;5046452;28;20808;-65
2021/01/21 12:46:45;;;;;;;2.30;0.95;;;19.40;45.90;;;;;;5028354;28;20688;-65